createdAt,value
2022-12-13T00:01:19.548Z,4.50
2022-12-13T00:04:08.242Z,4.93
2022-12-13T00:06:55.185Z,5.23
2022-12-13T00:09:43.249Z,5.97
2022-12-13T00:12:30.166Z,5.17
2022-12-13T00:15:18.311Z,6.53
2022-12-13T00:18:05.431Z,6.10
2022-12-13T00:20:52.006Z,5.60
2022-12-13T00:23:38.863Z,5.40
2022-12-13T00:26:28.006Z,6.47
2022-12-13T00:29:16.112Z,6.80
2022-12-13T00:32:04.515Z,6.07
2022-12-13T00:34:51.612Z,7.07
2022-12-13T00:37:38.303Z,6.53
2022-12-13T00:40:25.511Z,6.17
2022-12-13T00:43:12.254Z,5.53
2022-12-13T00:45:58.700Z,6.43
2022-12-13T00:48:51.257Z,5.70
2022-12-13T00:51:38.205Z,5.50
2022-12-13T00:54:24.977Z,5.73
2022-12-13T00:57:11.762Z,5.97
2022-12-13T00:59:59.773Z,5.93
2022-12-13T01:02:46.716Z,6.83
2022-12-13T01:06:13.120Z,5.40
2022-12-13T01:08:43.215Z,6.10
2022-12-13T01:11:30.129Z,6.83
2022-12-13T01:14:17.769Z,5.97
2022-12-13T01:17:05.197Z,5.70
2022-12-13T01:19:51.776Z,7.03
2022-12-13T01:22:39.865Z,7.27
2022-12-13T01:25:26.889Z,6.53
2022-12-13T01:28:14.396Z,6.57
2022-12-13T01:31:02.672Z,6.73
2022-12-13T01:33:50.540Z,7.10
2022-12-13T01:36:38.072Z,7.97
2022-12-13T01:39:27.719Z,7.83
2022-12-13T01:42:15.750Z,7.60
2022-12-13T01:45:06.362Z,8.33
2022-12-13T01:47:56.742Z,8.93
2022-12-13T01:50:49.406Z,8.10
2022-12-13T01:53:40.113Z,8.23
2022-12-13T01:56:33.182Z,8.53
2022-12-13T01:59:21.267Z,7.37
2022-12-13T02:02:10.343Z,7.77
2022-12-13T02:05:01.182Z,8.17
2022-12-13T02:07:49.004Z,8.97
2022-12-13T02:10:35.369Z,8.30
2022-12-13T02:13:23.549Z,8.13
2022-12-13T02:16:22.625Z,8.70
2022-12-13T02:19:50.903Z,8.87
2022-12-13T02:22:58.390Z,7.83
2022-12-13T02:26:13.359Z,8.10
2022-12-13T02:29:29.985Z,7.60
2022-12-13T02:32:29.289Z,8.07
2022-12-13T02:35:22.568Z,7.57
2022-12-13T02:38:20.087Z,7.67
2022-12-13T02:41:18.021Z,7.67
2022-12-13T02:44:21.934Z,8.13
2022-12-13T02:47:21.768Z,7.37
2022-12-13T02:50:13.184Z,7.40
2022-12-13T02:53:01.177Z,8.20
2022-12-13T02:55:47.889Z,7.57
2022-12-13T02:58:37.718Z,7.37
2022-12-13T03:01:40.860Z,8.87
2022-12-13T03:05:02.311Z,8.27
2022-12-13T03:08:01.969Z,8.00
2022-12-13T03:10:58.111Z,7.63
2022-12-13T03:13:50.623Z,7.70
2022-12-13T03:16:41.704Z,8.30
2022-12-13T03:19:28.691Z,8.53
2022-12-13T03:22:17.228Z,8.50
2022-12-13T03:25:05.547Z,8.23
2022-12-13T03:27:52.793Z,9.80
2022-12-13T03:30:40.112Z,8.10
2022-12-13T03:33:27.110Z,8.43
2022-12-13T03:36:14.787Z,9.00
2022-12-13T03:39:01.641Z,8.63
2022-12-13T03:41:50.444Z,9.60
2022-12-13T03:44:37.259Z,8.93
2022-12-13T03:47:24.136Z,8.53
2022-12-13T03:50:26.541Z,9.33
2022-12-13T03:53:22.734Z,8.80
2022-12-13T03:56:18.758Z,9.37
2022-12-13T03:59:07.230Z,9.33
2022-12-13T04:01:54.315Z,8.80
2022-12-13T04:04:41.241Z,8.17
2022-12-13T04:07:34.145Z,9.03
2022-12-13T04:10:25.294Z,8.40
2022-12-13T04:13:29.603Z,8.90
2022-12-13T04:16:17.950Z,8.63
2022-12-13T04:19:04.651Z,9.47
2022-12-13T04:21:50.979Z,8.27
2022-12-13T04:24:38.332Z,8.93
2022-12-13T04:27:25.391Z,10.10
2022-12-13T04:30:12.959Z,9.43
2022-12-13T04:33:01.115Z,9.70
2022-12-13T04:35:47.726Z,9.77
2022-12-13T04:38:34.494Z,8.83
2022-12-13T04:41:21.234Z,9.13
2022-12-13T04:44:28.770Z,8.87
2022-12-13T04:47:17.663Z,9.80
2022-12-13T04:50:06.577Z,8.40
2022-12-13T04:52:53.470Z,9.37
2022-12-13T04:55:40.269Z,9.13
2022-12-13T04:58:27.187Z,9.30
2022-12-13T05:01:14.664Z,9.50
2022-12-13T05:04:03.037Z,9.43
2022-12-13T05:06:50.977Z,8.70
2022-12-13T05:09:37.956Z,9.47
2022-12-13T05:12:24.817Z,9.53
2022-12-13T05:15:11.584Z,9.43
2022-12-13T05:18:10.321Z,9.07
2022-12-13T05:20:58.025Z,9.23
2022-12-13T05:23:46.190Z,10.40
2022-12-13T05:26:33.737Z,10.67
2022-12-13T05:29:20.919Z,9.77
2022-12-13T05:32:07.511Z,9.80
2022-12-13T05:34:54.260Z,9.47
2022-12-13T05:37:40.835Z,10.07
2022-12-13T05:40:32.196Z,9.30
2022-12-13T05:43:21.236Z,9.93
2022-12-13T05:46:08.952Z,9.70
2022-12-13T05:48:55.758Z,9.87
2022-12-13T05:51:43.533Z,10.90
2022-12-13T05:54:30.471Z,10.30
2022-12-13T05:57:18.791Z,9.43
2022-12-13T06:00:28.749Z,9.50
2022-12-13T06:03:15.606Z,10.03
2022-12-13T06:06:03.167Z,9.67
2022-12-13T06:08:50.027Z,9.97
2022-12-13T06:11:43.413Z,9.30
2022-12-13T06:14:31.879Z,10.63
2022-12-13T06:17:21.635Z,10.03
2022-12-13T06:20:24.247Z,10.17
2022-12-13T06:23:11.595Z,11.23
2022-12-13T06:25:58.458Z,10.30
2022-12-13T06:28:45.308Z,9.90
2022-12-13T06:31:33.718Z,9.50
2022-12-13T06:34:20.242Z,10.87
2022-12-13T06:37:09.090Z,10.87
2022-12-13T06:39:55.724Z,9.87
2022-12-13T06:42:42.221Z,10.17
2022-12-13T06:45:29.109Z,9.83
2022-12-13T06:48:20.155Z,9.37
2022-12-13T06:51:08.017Z,10.10
2022-12-13T06:54:01.085Z,11.20
2022-12-13T06:56:48.977Z,10.43
2022-12-13T06:59:35.873Z,9.63
2022-12-13T07:02:26.368Z,9.40
2022-12-13T07:05:15.092Z,11.30
2022-12-13T07:08:01.476Z,9.87
2022-12-13T07:10:48.415Z,9.90
2022-12-13T07:13:37.783Z,11.00
2022-12-13T07:16:25.451Z,10.87
2022-12-13T07:19:22.995Z,10.37
2022-12-13T07:22:12.867Z,10.93
2022-12-13T07:24:59.756Z,11.00
2022-12-13T07:27:46.386Z,11.60
2022-12-13T07:30:41.209Z,10.47
2022-12-13T07:33:35.101Z,11.43
2022-12-13T07:36:25.200Z,11.07
2022-12-13T07:39:14.451Z,10.23
2022-12-13T07:42:01.353Z,9.90
2022-12-13T07:44:48.264Z,10.33
2022-12-13T07:47:34.922Z,11.17
2022-12-13T07:50:24.990Z,11.07
2022-12-13T07:53:12.676Z,10.93
2022-12-13T07:56:02.754Z,10.90
2022-12-13T07:58:49.344Z,12.50
2022-12-13T08:01:36.191Z,10.40
2022-12-13T08:04:23.016Z,9.63
2022-12-13T08:07:10.045Z,10.53
2022-12-13T08:09:56.813Z,10.53
2022-12-13T08:12:44.854Z,10.67
2022-12-13T08:15:32.313Z,11.47
2022-12-13T08:18:18.821Z,10.53
2022-12-13T08:21:37.252Z,10.43
2022-12-13T08:24:16.345Z,10.70
2022-12-13T08:27:04.760Z,10.77
2022-12-13T08:29:52.660Z,10.70
2022-12-13T08:32:40.628Z,11.10
2022-12-13T08:35:33.791Z,10.53
2022-12-13T08:38:22.587Z,11.40
2022-12-13T08:41:11.152Z,11.50
2022-12-13T08:43:57.729Z,10.63
2022-12-13T08:46:46.037Z,12.10
2022-12-13T08:49:32.801Z,11.50
2022-12-13T08:52:19.647Z,11.70
2022-12-13T08:55:06.941Z,12.23
2022-12-13T08:57:53.504Z,10.67
2022-12-13T09:00:40.988Z,11.10
2022-12-13T09:03:29.326Z,10.60
2022-12-13T09:06:17.757Z,10.17
2022-12-13T09:09:04.458Z,10.90
2022-12-13T09:11:51.279Z,11.33
2022-12-13T09:14:47.044Z,11.30
2022-12-13T09:17:36.309Z,10.53
2022-12-13T09:20:29.077Z,11.17
2022-12-13T09:23:23.398Z,10.17
2022-12-13T09:26:15.043Z,11.97
2022-12-13T09:29:10.758Z,10.50
2022-12-13T09:31:58.168Z,11.37
2022-12-13T09:34:46.106Z,10.43
2022-12-13T09:37:34.647Z,10.50
2022-12-13T09:40:25.834Z,10.77
2022-12-13T09:43:21.924Z,10.67
2022-12-13T09:46:22.685Z,12.03
2022-12-13T09:49:15.994Z,10.67
2022-12-13T09:52:21.379Z,10.87
2022-12-13T09:55:21.410Z,9.70
2022-12-13T09:58:15.448Z,9.37
2022-12-13T10:01:02.296Z,10.73
2022-12-13T10:03:51.636Z,10.30
2022-12-13T10:06:38.948Z,10.00
2022-12-13T10:09:26.100Z,10.47
2022-12-13T10:12:17.744Z,8.67
2022-12-13T10:15:05.040Z,9.73
2022-12-13T10:17:54.912Z,9.30
2022-12-13T10:20:43.853Z,9.70
2022-12-13T10:23:42.631Z,9.67
2022-12-13T10:26:38.804Z,9.23
2022-12-13T10:29:27.250Z,9.03
2022-12-13T10:32:14.533Z,8.57
2022-12-13T10:35:01.305Z,9.57
2022-12-13T10:37:48.124Z,9.03
2022-12-13T10:40:36.500Z,9.33
2022-12-13T10:43:26.450Z,11.03
2022-12-13T10:46:25.050Z,8.67
2022-12-13T10:49:18.312Z,8.73
2022-12-13T10:52:06.260Z,9.73
2022-12-13T10:54:53.622Z,8.47
2022-12-13T10:57:53.604Z,9.47
2022-12-13T11:00:45.152Z,8.53
2022-12-13T11:03:35.587Z,10.53
2022-12-13T11:06:22.771Z,10.23
2022-12-13T11:09:23.141Z,8.93
2022-12-13T11:12:16.542Z,8.30
2022-12-13T11:15:07.480Z,9.73
2022-12-13T11:17:57.278Z,9.17
2022-12-13T11:20:55.966Z,8.57
2022-12-13T11:23:46.355Z,8.50
2022-12-13T11:26:36.122Z,9.10
2022-12-13T11:29:47.765Z,8.73
2022-12-13T11:32:46.856Z,9.97
2022-12-13T11:35:43.889Z,8.47
2022-12-13T11:38:37.331Z,9.30
2022-12-13T11:41:32.597Z,8.93
2022-12-13T11:44:25.394Z,8.23
2022-12-13T11:47:17.944Z,8.00
2022-12-13T11:50:20.493Z,8.50
2022-12-13T11:53:27.831Z,8.57
2022-12-13T11:56:23.952Z,8.87
2022-12-13T11:59:26.653Z,9.90
2022-12-13T12:02:21.683Z,8.87
2022-12-13T12:05:23.944Z,9.10
2022-12-13T12:08:33.552Z,8.37
2022-12-13T12:11:31.512Z,7.73
2022-12-13T12:14:24.098Z,8.10
2022-12-13T12:17:14.705Z,7.10
2022-12-13T12:20:03.595Z,7.93
2022-12-13T12:23:01.387Z,8.00
2022-12-13T12:25:55.363Z,8.40
2022-12-13T12:29:12.368Z,6.90
2022-12-13T12:32:09.274Z,7.30
2022-12-13T12:35:11.764Z,7.67
2022-12-13T12:38:13.473Z,7.20
2022-12-13T12:41:25.584Z,7.90
2022-12-13T12:44:30.815Z,7.83
2022-12-13T12:48:07.218Z,7.07
2022-12-13T12:50:50.055Z,7.40
2022-12-13T12:53:44.716Z,7.67
2022-12-13T12:56:41.269Z,7.00
2022-12-13T12:59:41.221Z,6.77
2022-12-13T13:02:38.719Z,7.67
2022-12-13T13:05:32.357Z,7.87
2022-12-13T13:08:24.122Z,7.83
2022-12-13T13:11:23.692Z,8.67
2022-12-13T13:14:32.188Z,8.73
2022-12-13T13:17:47.563Z,7.60
2022-12-13T13:20:34.310Z,8.43
2022-12-13T13:23:39.999Z,7.70
2022-12-13T13:26:35.995Z,9.10
2022-12-13T13:29:43.181Z,8.60
2022-12-13T13:32:32.887Z,8.63
2022-12-13T13:35:53.807Z,8.27
2022-12-13T13:38:54.883Z,7.83
2022-12-13T13:42:18.196Z,8.87
2022-12-13T13:45:20.861Z,9.10
2022-12-13T13:48:41.749Z,8.33
2022-12-13T13:52:23.800Z,8.77
2022-12-13T13:55:31.880Z,8.67
2022-12-13T13:58:50.635Z,9.13
2022-12-13T14:02:08.212Z,8.60
2022-12-13T14:05:38.601Z,9.63
2022-12-13T14:08:42.186Z,10.70
2022-12-13T14:12:02.751Z,11.23
2022-12-13T14:15:21.158Z,11.47
2022-12-13T14:18:43.630Z,10.93
2022-12-13T14:21:39.503Z,9.63
2022-12-13T14:24:39.990Z,9.07
2022-12-13T14:27:41.210Z,10.27
2022-12-13T14:30:29.502Z,11.33
2022-12-13T14:33:20.895Z,11.97
2022-12-13T14:36:16.661Z,10.67
2022-12-13T14:39:24.540Z,10.83
2022-12-13T14:42:24.521Z,10.47
2022-12-13T14:45:17.707Z,9.90
2022-12-13T14:48:07.070Z,10.87
2022-12-13T14:50:54.594Z,11.30
2022-12-13T14:53:42.198Z,10.60
2022-12-13T14:56:30.801Z,11.87
2022-12-13T14:59:17.449Z,10.13
2022-12-13T15:02:06.490Z,11.37
2022-12-13T15:04:54.792Z,11.80
2022-12-13T15:07:43.309Z,11.40
2022-12-13T15:10:38.748Z,10.83
2022-12-13T15:13:32.734Z,10.23
2022-12-13T15:16:25.973Z,11.03
2022-12-13T15:19:29.975Z,10.07
2022-12-13T15:22:23.178Z,10.33
2022-12-13T15:25:23.123Z,9.90
2022-12-13T15:28:21.708Z,12.93
2022-12-13T15:31:11.565Z,10.50
2022-12-13T15:34:29.179Z,10.50
2022-12-13T15:37:29.365Z,9.10
2022-12-13T15:40:16.930Z,9.20
2022-12-13T15:43:04.254Z,10.87
2022-12-13T15:45:53.414Z,11.33
2022-12-13T15:48:48.440Z,10.97
2022-12-13T15:51:55.337Z,10.97
2022-12-13T15:54:54.862Z,11.93
2022-12-13T15:57:51.239Z,10.97
2022-12-13T16:00:38.265Z,10.40
2022-12-13T16:03:27.713Z,10.27
2022-12-13T16:06:22.857Z,10.80
2022-12-13T16:09:19.906Z,10.23
2022-12-13T16:12:08.162Z,11.07
2022-12-13T16:15:14.093Z,11.37
2022-12-13T16:18:26.590Z,10.17
2022-12-13T16:21:14.510Z,11.60
2022-12-13T16:24:02.583Z,11.03
2022-12-13T16:26:49.626Z,10.67
2022-12-13T16:29:37.017Z,10.00
2022-12-13T16:32:24.384Z,11.03
2022-12-13T16:35:11.374Z,11.63
2022-12-13T16:37:59.388Z,10.60
2022-12-13T16:40:51.995Z,11.43
2022-12-13T16:43:41.492Z,10.23
2022-12-13T16:47:11.732Z,10.90
2022-12-13T16:49:35.732Z,11.13
2022-12-13T16:52:23.100Z,11.80
2022-12-13T16:55:11.056Z,10.53
2022-12-13T16:58:01.245Z,11.17
2022-12-13T17:00:47.897Z,12.77
2022-12-13T17:03:34.600Z,11.10
2022-12-13T17:06:24.968Z,10.70
2022-12-13T17:09:11.712Z,12.80
2022-12-13T17:11:58.727Z,10.83
2022-12-13T17:14:46.870Z,11.67
2022-12-13T17:17:33.672Z,11.50
2022-12-13T17:20:20.742Z,11.00
2022-12-13T17:23:08.104Z,10.93
2022-12-13T17:25:58.446Z,10.33
2022-12-13T17:28:46.311Z,10.70
2022-12-13T17:31:36.406Z,10.60
2022-12-13T17:34:23.383Z,11.03
2022-12-13T17:37:10.768Z,10.90
2022-12-13T17:39:57.683Z,11.50
2022-12-13T17:42:45.619Z,10.47
2022-12-13T17:45:32.317Z,10.40
2022-12-13T17:48:21.244Z,10.73
2022-12-13T17:51:08.816Z,9.03
2022-12-13T17:53:55.675Z,9.67
2022-12-13T17:56:42.505Z,10.83
2022-12-13T17:59:29.310Z,9.67
2022-12-13T18:02:22.761Z,10.43
2022-12-13T18:05:17.708Z,9.40
2022-12-13T18:08:04.739Z,9.53
2022-12-13T18:11:23.565Z,10.50
2022-12-13T18:14:02.847Z,11.10
2022-12-13T18:16:49.411Z,8.70
2022-12-13T18:19:36.285Z,10.63
2022-12-13T18:22:24.672Z,11.17
2022-12-13T18:25:11.922Z,9.67
2022-12-13T18:28:01.048Z,9.87
2022-12-13T18:30:47.872Z,9.57
2022-12-13T18:33:35.202Z,11.37
2022-12-13T18:36:23.633Z,10.17
2022-12-13T18:39:13.348Z,10.40
2022-12-13T18:42:00.165Z,9.77
2022-12-13T18:44:54.514Z,10.97
2022-12-13T18:47:41.992Z,10.33
2022-12-13T18:50:29.382Z,9.63
2022-12-13T18:53:16.177Z,10.10
2022-12-13T18:56:08.175Z,11.03
2022-12-13T18:58:56.286Z,10.83
2022-12-13T19:01:43.036Z,9.53
2022-12-13T19:04:30.043Z,9.63
2022-12-13T19:07:16.649Z,10.37
2022-12-13T19:10:03.474Z,9.50
2022-12-13T19:12:53.256Z,11.90
2022-12-13T19:15:40.536Z,9.73
2022-12-13T19:18:27.244Z,10.60
2022-12-13T19:21:15.895Z,10.83
2022-12-13T19:24:03.006Z,10.03
2022-12-13T19:26:51.009Z,10.50
2022-12-13T19:29:39.329Z,10.93
2022-12-13T19:32:26.266Z,11.60
2022-12-13T19:35:12.865Z,11.60
2022-12-13T19:37:59.699Z,11.73
2022-12-13T19:40:46.796Z,10.80
2022-12-13T19:43:33.327Z,9.67
2022-12-13T19:46:22.260Z,10.83
2022-12-13T19:49:11.647Z,11.23
2022-12-13T19:51:58.503Z,11.43
2022-12-13T19:54:45.634Z,10.80
2022-12-13T19:57:33.506Z,11.73
2022-12-13T20:00:21.168Z,11.13
2022-12-13T20:03:09.518Z,11.10
2022-12-13T20:05:58.587Z,9.63
2022-12-13T20:08:45.524Z,11.07
2022-12-13T20:11:32.592Z,11.00
2022-12-13T20:14:19.168Z,11.20
2022-12-13T20:17:06.230Z,10.23
2022-12-13T20:19:54.408Z,10.13
2022-12-13T20:22:41.171Z,11.40
2022-12-13T20:25:29.148Z,11.33
2022-12-13T20:28:16.499Z,11.47
2022-12-13T20:31:06.051Z,10.57
2022-12-13T20:33:55.924Z,11.23
2022-12-13T20:36:44.537Z,10.73
2022-12-13T20:39:31.946Z,11.60
2022-12-13T20:42:19.354Z,11.30
2022-12-13T20:45:06.809Z,9.60
2022-12-13T20:47:53.347Z,10.33
2022-12-13T20:50:40.343Z,9.67
2022-12-13T20:53:28.886Z,10.93
2022-12-13T20:56:18.050Z,11.30
2022-12-13T20:59:06.450Z,10.57
2022-12-13T21:01:53.235Z,10.67
2022-12-13T21:04:41.021Z,11.10
2022-12-13T21:07:41.429Z,11.83
2022-12-13T21:10:29.341Z,10.70
2022-12-13T21:13:16.199Z,11.20
2022-12-13T21:16:06.955Z,11.20
2022-12-13T21:18:55.021Z,10.43
2022-12-13T21:21:41.958Z,10.27
2022-12-13T21:24:29.518Z,9.40
2022-12-13T21:27:18.241Z,11.90
2022-12-13T21:30:05.858Z,9.93
2022-12-13T21:32:53.087Z,11.23
2022-12-13T21:35:39.936Z,11.30
2022-12-13T21:38:28.182Z,10.27
2022-12-13T21:41:15.300Z,9.90
2022-12-13T21:44:03.225Z,10.43
2022-12-13T21:49:57.044Z,10.77
2022-12-13T21:52:48.043Z,11.37
2022-12-13T21:55:42.968Z,9.67
2022-12-13T21:58:52.754Z,9.23
2022-12-13T22:02:03.370Z,10.47
2022-12-13T22:04:52.156Z,10.33
2022-12-13T22:07:39.140Z,9.57
2022-12-13T22:10:26.038Z,10.93
2022-12-13T22:13:18.630Z,10.23
2022-12-13T22:16:07.250Z,10.30
2022-12-13T22:18:56.454Z,8.90
2022-12-13T22:21:44.239Z,9.17
2022-12-13T22:24:30.949Z,10.27
2022-12-13T22:27:23.843Z,9.20
2022-12-13T22:30:11.680Z,10.07
2022-12-13T22:33:01.075Z,9.30
2022-12-13T22:35:49.779Z,10.55
2022-12-13T22:38:37.135Z,10.13
2022-12-13T22:41:24.073Z,10.67
2022-12-13T22:44:14.091Z,10.70
2022-12-13T22:47:01.307Z,10.00
2022-12-13T22:49:48.872Z,9.77
2022-12-13T22:52:37.323Z,10.68
2022-12-13T22:55:24.071Z,10.68
2022-12-13T22:58:10.853Z,11.68
2022-12-13T23:00:57.923Z,11.98
2022-12-13T23:03:45.897Z,9.65
2022-12-13T23:06:34.346Z,9.70
2022-12-13T23:09:23.193Z,10.27
2022-12-13T23:12:29.407Z,11.20
2022-12-13T23:15:16.339Z,9.93
2022-12-13T23:18:03.225Z,10.40
2022-12-13T23:20:51.731Z,9.60
2022-12-13T23:23:39.591Z,10.68
2022-12-13T23:26:30.653Z,10.10
2022-12-13T23:29:17.857Z,9.90
2022-12-13T23:32:04.907Z,9.55
2022-12-13T23:34:51.590Z,7.93
2022-12-13T23:37:38.275Z,9.13
2022-12-13T23:40:25.123Z,9.77
2022-12-13T23:43:13.004Z,9.20
2022-12-13T23:46:00.688Z,10.27
2022-12-13T23:48:47.820Z,8.30
2022-12-13T23:51:35.076Z,10.02
2022-12-13T23:54:21.585Z,9.38
2022-12-13T23:57:08.489Z,9.25
2022-12-13T23:59:56.674Z,10.20
